Skip Navigation Links Skip Navigation Links

Current Weather

Frederick Muni, Frederick, Md.

For information only: do not use for flight planning or navigation.
Latest weather
Observation time Sunday, August 1, 2021 5:55 AM EDT
Local time Sunday, August 1, 2021 7:14 AM EDT
Flight conditions Visual Meteorological Conditions
Winds
Wind speed calm
Visibility 10 mi.
Sky condition
Ceiling 6,000 ft. broken clouds
Cloud layer broken clouds 6,000 ft.
Cloud layer overcast 7,000 ft.
Temperature 68°F
Dewpoint 64°F
Altimeter 29.90 in.Hg
Derived measurements
Relative humidity 88%
Density altitude 1194 ft.
Remarks
Fully automated report.
Automated weather observing station with precipitation discriminator.
METAR KFDK 010955Z AUTO 00000KT 10SM BKN060 OVC070 20/18 A2990 RMK AO2

Settings

Location code

InnerDrive.Weather 4.0.6770.0 Release CLR 4.0.30319.42000
Copyright ©2018 Inner Drive Technology. All rights reserved. Portions Copyright ©1986-2018 David Braverman.

Find weather

Site navigation


Skip Navigation Links

Place info

Page info

PayPal - The safer, easier way to pay online!

Return home.

Copyright ©2021 Inner Drive Technology. Purveyors of fine, hand-crafted computer software. Page printed 2021-08-01T11:14:46 UTC.